sensor_id;sensor_type;location;lat;lon;timestamp;pressure;altitude;pressure_sealevel;temperature;humidity
7333;BME280;3707;43.618;25.342;2024-01-27T00:00:15;100670.38;;;4.35;100.00
7333;BME280;3707;43.618;25.342;2024-01-27T00:02:42;100660.13;;;4.35;100.00
7333;BME280;3707;43.618;25.342;2024-01-27T00:05:09;100698.88;;;4.58;100.00
7333;BME280;3707;43.618;25.342;2024-01-27T00:07:36;100700.19;;;4.49;100.00
7333;BME280;3707;43.618;25.342;2024-01-27T00:10:04;100677.75;;;4.45;100.00
7333;BME280;3707;43.618;25.342;2024-01-27T00:12:32;100689.91;;;4.49;100.00
7333;BME280;3707;43.618;25.342;2024-01-27T00:14:59;100625.00;;;4.17;100.00
7333;BME280;3707;43.618;25.342;2024-01-27T00:17:26;100692.44;;;4.48;100.00
7333;BME280;3707;43.618;25.342;2024-01-27T00:19:53;100665.56;;;4.41;100.00
7333;BME280;3707;43.618;25.342;2024-01-27T00:22:20;100672.69;;;4.47;100.00
7333;BME280;3707;43.618;25.342;2024-01-27T00:24:47;100660.13;;;4.53;100.00
7333;BME280;3707;43.618;25.342;2024-01-27T00:27:14;100674.97;;;4.59;100.00
7333;BME280;3707;43.618;25.342;2024-01-27T00:29:42;100673.78;;;4.70;100.00
7333;BME280;3707;43.618;25.342;2024-01-27T00:32:09;100661.63;;;4.66;100.00
7333;BME280;3707;43.618;25.342;2024-01-27T00:34:35;100664.31;;;4.69;100.00
7333;BME280;3707;43.618;25.342;2024-01-27T00:37:02;100639.00;;;4.59;100.00
7333;BME280;3707;43.618;25.342;2024-01-27T00:39:31;100623.09;;;4.48;100.00
7333;BME280;3707;43.618;25.342;2024-01-27T00:41:58;100662.88;;;4.74;100.00
7333;BME280;3707;43.618;25.342;2024-01-27T00:44:25;100657.34;;;4.84;100.00
7333;BME280;3707;43.618;25.342;2024-01-27T00:46:53;100631.06;;;4.72;100.00
7333;BME280;3707;43.618;25.342;2024-01-27T00:49:20;100655.06;;;4.90;100.00
7333;BME280;3707;43.618;25.342;2024-01-27T00:51:46;100533.28;;;4.13;100.00
7333;BME280;3707;43.618;25.342;2024-01-27T00:54:13;100647.88;;;4.83;100.00
7333;BME280;3707;43.618;25.342;2024-01-27T00:56:40;100602.03;;;4.55;100.00
7333;BME280;3707;43.618;25.342;2024-01-27T00:59:07;100649.16;;;4.92;100.00
7333;BME280;3707;43.618;25.342;2024-01-27T01:01:33;100610.88;;;4.79;100.00
7333;BME280;3707;43.618;25.342;2024-01-27T01:04:02;100593.44;;;4.72;100.00
7333;BME280;3707;43.618;25.342;2024-01-27T01:06:29;100586.03;;;4.61;100.00
7333;BME280;3707;43.618;25.342;2024-01-27T01:08:55;100395.59;;;3.59;100.00
7333;BME280;3707;43.618;25.342;2024-01-27T01:11:22;100634.19;;;5.02;100.00
7333;BME280;3707;43.618;25.342;2024-01-27T01:13:49;100634.94;;;4.99;100.00
7333;BME280;3707;43.618;25.342;2024-01-27T01:16:16;100521.59;;;4.37;100.00
7333;BME280;3707;43.618;25.342;2024-01-27T01:18:43;100624.66;;;4.99;100.00
7333;BME280;3707;43.618;25.342;2024-01-27T01:21:11;100565.78;;;4.67;100.00
7333;BME280;3707;43.618;25.342;2024-01-27T01:23:38;100539.97;;;4.46;100.00
7333;BME280;3707;43.618;25.342;2024-01-27T01:26:05;100579.03;;;4.76;100.00
7333;BME280;3707;43.618;25.342;2024-01-27T01:28:31;100608.38;;;4.98;100.00
7333;BME280;3707;43.618;25.342;2024-01-27T01:30:58;100586.34;;;4.86;100.00
7333;BME280;3707;43.618;25.342;2024-01-27T01:33:25;100530.72;;;4.49;100.00
7333;BME280;3707;43.618;25.342;2024-01-27T01:35:52;100615.19;;;4.98;100.00
7333;BME280;3707;43.618;25.342;2024-01-27T01:38:20;100565.94;;;4.70;100.00
7333;BME280;3707;43.618;25.342;2024-01-27T01:40:47;100558.53;;;4.58;100.00
7333;BME280;3707;43.618;25.342;2024-01-27T01:43:14;100611.16;;;4.85;100.00
7333;BME280;3707;43.618;25.342;2024-01-27T01:45:40;100568.66;;;4.55;100.00
7333;BME280;3707;43.618;25.342;2024-01-27T01:48:07;100622.94;;;4.80;100.00
7333;BME280;3707;43.618;25.342;2024-01-27T01:50:34;100582.38;;;4.56;100.00
7333;BME280;3707;43.618;25.342;2024-01-27T01:53:02;100583.31;;;4.58;100.00
7333;BME280;3707;43.618;25.342;2024-01-27T01:55:30;100606.78;;;4.83;100.00
7333;BME280;3707;43.618;25.342;2024-01-27T01:57:57;100545.19;;;4.47;100.00
7333;BME280;3707;43.618;25.342;2024-01-27T02:00:23;100596.88;;;4.73;100.00
7333;BME280;3707;43.618;25.342;2024-01-27T02:02:50;100603.25;;;4.81;100.00
7333;BME280;3707;43.618;25.342;2024-01-27T02:05:18;100513.81;;;4.35;100.00
7333;BME280;3707;43.618;25.342;2024-01-27T02:07:44;100605.31;;;4.88;100.00
7333;BME280;3707;43.618;25.342;2024-01-27T02:10:15;100608.28;;;4.97;100.00
7333;BME280;3707;43.618;25.342;2024-01-27T02:12:44;100605.56;;;4.94;100.00
7333;BME280;3707;43.618;25.342;2024-01-27T02:15:11;100598.22;;;5.02;100.00
7333;BME280;3707;43.618;25.342;2024-01-27T02:17:39;100579.75;;;4.91;100.00
7333;BME280;3707;43.618;25.342;2024-01-27T02:20:07;100571.38;;;4.95;100.00
7333;BME280;3707;43.618;25.342;2024-01-27T02:22:34;100310.53;;;3.48;100.00
7333;BME280;3707;43.618;25.342;2024-01-27T02:25:03;100580.72;;;5.12;100.00
7333;BME280;3707;43.618;25.342;2024-01-27T02:27:30;100568.94;;;4.98;100.00
7333;BME280;3707;43.618;25.342;2024-01-27T02:29:57;100578.69;;;5.05;100.00
7333;BME280;3707;43.618;25.342;2024-01-27T02:32:24;100576.78;;;5.01;100.00
7333;BME280;3707;43.618;25.342;2024-01-27T02:34:51;100569.41;;;5.09;100.00
7333;BME280;3707;43.618;25.342;2024-01-27T02:37:18;100576.50;;;5.14;100.00
7333;BME280;3707;43.618;25.342;2024-01-27T02:39:45;100569.22;;;5.23;100.00
7333;BME280;3707;43.618;25.342;2024-01-27T02:42:13;100566.78;;;5.26;100.00
7333;BME280;3707;43.618;25.342;2024-01-27T02:44:39;100574.59;;;5.29;100.00
7333;BME280;3707;43.618;25.342;2024-01-27T02:47:06;100558.94;;;5.23;100.00
7333;BME280;3707;43.618;25.342;2024-01-27T02:49:33;100529.13;;;5.28;100.00
7333;BME280;3707;43.618;25.342;2024-01-27T02:52:00;100511.03;;;5.25;100.00
7333;BME280;3707;43.618;25.342;2024-01-27T02:54:26;100534.16;;;5.44;100.00
7333;BME280;3707;43.618;25.342;2024-01-27T02:56:53;100516.69;;;5.37;100.00
7333;BME280;3707;43.618;25.342;2024-01-27T02:59:21;100462.19;;;5.25;100.00
7333;BME280;3707;43.618;25.342;2024-01-27T03:01:48;100457.94;;;5.07;100.00
7333;BME280;3707;43.618;25.342;2024-01-27T03:04:15;100513.81;;;5.50;100.00
7333;BME280;3707;43.618;25.342;2024-01-27T03:06:42;100342.38;;;4.67;100.00
7333;BME280;3707;43.618;25.342;2024-01-27T03:09:08;100412.00;;;5.14;100.00
7333;BME280;3707;43.618;25.342;2024-01-27T03:11:36;100520.41;;;5.65;100.00
7333;BME280;3707;43.618;25.342;2024-01-27T03:14:02;100518.25;;;5.74;100.00
7333;BME280;3707;43.618;25.342;2024-01-27T03:16:31;100523.38;;;5.74;100.00
7333;BME280;3707;43.618;25.342;2024-01-27T03:18:58;100493.66;;;5.60;100.00
7333;BME280;3707;43.618;25.342;2024-01-27T03:21:25;100327.84;;;4.67;99.79
7333;BME280;3707;43.618;25.342;2024-01-27T03:23:51;100508.19;;;5.80;100.00
7333;BME280;3707;43.618;25.342;2024-01-27T03:26:18;100460.91;;;5.56;100.00
7333;BME280;3707;43.618;25.342;2024-01-27T03:28:45;100502.16;;;5.79;100.00
7333;BME280;3707;43.618;25.342;2024-01-27T03:31:12;100461.78;;;5.56;100.00
7333;BME280;3707;43.618;25.342;2024-01-27T03:33:40;100517.13;;;5.88;100.00
7333;BME280;3707;43.618;25.342;2024-01-27T03:36:09;100506.19;;;5.93;100.00
7333;BME280;3707;43.618;25.342;2024-01-27T03:38:36;100498.00;;;5.83;99.96
7333;BME280;3707;43.618;25.342;2024-01-27T03:41:04;100472.94;;;5.77;100.00
7333;BME280;3707;43.618;25.342;2024-01-27T03:43:34;100465.72;;;5.89;99.35
7333;BME280;3707;43.618;25.342;2024-01-27T03:46:01;100419.75;;;5.56;99.45
7333;BME280;3707;43.618;25.342;2024-01-27T03:48:28;100494.53;;;6.02;99.69
7333;BME280;3707;43.618;25.342;2024-01-27T03:50:56;100489.41;;;6.03;100.00
7333;BME280;3707;43.618;25.342;2024-01-27T03:53:23;100485.34;;;6.08;99.76
7333;BME280;3707;43.618;25.342;2024-01-27T03:55:50;100453.03;;;5.94;99.46
7333;BME280;3707;43.618;25.342;2024-01-27T03:58:17;100477.56;;;6.29;98.44
7333;BME280;3707;43.618;25.342;2024-01-27T04:00:43;100464.88;;;6.33;97.54
7333;BME280;3707;43.618;25.342;2024-01-27T04:03:10;100272.81;;;5.24;98.11
7333;BME280;3707;43.618;25.342;2024-01-27T04:05:37;100450.41;;;6.37;97.04
7333;BME280;3707;43.618;25.342;2024-01-27T04:08:06;100370.91;;;6.00;97.14
7333;BME280;3707;43.618;25.342;2024-01-27T04:10:33;100384.16;;;6.09;97.04
7333;BME280;3707;43.618;25.342;2024-01-27T04:13:00;100437.06;;;6.47;96.36
7333;BME280;3707;43.618;25.342;2024-01-27T04:15:26;100448.44;;;6.54;96.13
7333;BME280;3707;43.618;25.342;2024-01-27T04:17:53;100432.72;;;6.46;96.16
7333;BME280;3707;43.618;25.342;2024-01-27T04:20:21;100449.50;;;6.59;95.28
7333;BME280;3707;43.618;25.342;2024-01-27T04:22:47;100439.31;;;6.62;95.97
7333;BME280;3707;43.618;25.342;2024-01-27T04:25:16;100438.66;;;6.67;96.38
7333;BME280;3707;43.618;25.342;2024-01-27T04:27:42;100444.91;;;6.74;95.94
7333;BME280;3707;43.618;25.342;2024-01-27T04:30:11;100363.97;;;6.21;95.09
7333;BME280;3707;43.618;25.342;2024-01-27T04:32:38;100449.91;;;6.69;95.15
7333;BME280;3707;43.618;25.342;2024-01-27T04:35:08;100444.19;;;6.78;94.16
7333;BME280;3707;43.618;25.342;2024-01-27T04:37:35;100444.78;;;6.71;94.07
7333;BME280;3707;43.618;25.342;2024-01-27T04:40:03;100446.44;;;6.69;93.65
7333;BME280;3707;43.618;25.342;2024-01-27T04:42:32;100391.06;;;6.34;92.91
7333;BME280;3707;43.618;25.342;2024-01-27T04:44:59;100443.06;;;6.70;92.57
7333;BME280;3707;43.618;25.342;2024-01-27T04:47:26;100404.34;;;6.44;93.02
7333;BME280;3707;43.618;25.342;2024-01-27T04:49:53;100438.59;;;6.66;92.00
7333;BME280;3707;43.618;25.342;2024-01-27T04:52:20;100441.28;;;6.69;91.70
7333;BME280;3707;43.618;25.342;2024-01-27T04:54:47;100426.88;;;6.74;89.85
7333;BME280;3707;43.618;25.342;2024-01-27T04:57:14;100431.28;;;6.78;89.16
7333;BME280;3707;43.618;25.342;2024-01-27T04:59:42;100367.34;;;6.42;88.69
7333;BME280;3707;43.618;25.342;2024-01-27T05:02:09;100383.84;;;6.47;86.74
7333;BME280;3707;43.618;25.342;2024-01-27T05:04:37;100425.50;;;6.83;84.26
7333;BME280;3707;43.618;25.342;2024-01-27T05:07:04;100430.59;;;6.82;82.84
7333;BME280;3707;43.618;25.342;2024-01-27T05:09:30;100433.81;;;7.00;82.01
7333;BME280;3707;43.618;25.342;2024-01-27T05:11:59;100429.00;;;7.09;79.53
7333;BME280;3707;43.618;25.342;2024-01-27T05:14:26;100439.31;;;7.09;79.04
7333;BME280;3707;43.618;25.342;2024-01-27T05:16:54;100439.59;;;7.18;77.63
7333;BME280;3707;43.618;25.342;2024-01-27T05:19:21;100423.59;;;7.03;77.56
7333;BME280;3707;43.618;25.342;2024-01-27T05:21:48;100436.84;;;7.14;75.99
7333;BME280;3707;43.618;25.342;2024-01-27T05:24:14;100427.38;;;7.13;76.09
7333;BME280;3707;43.618;25.342;2024-01-27T05:26:41;100380.00;;;6.84;75.67
7333;BME280;3707;43.618;25.342;2024-01-27T05:29:08;100424.81;;;7.13;75.84
7333;BME280;3707;43.618;25.342;2024-01-27T05:31:35;100401.00;;;6.96;77.17
7333;BME280;3707;43.618;25.342;2024-01-27T05:34:03;100412.38;;;7.01;76.85
7333;BME280;3707;43.618;25.342;2024-01-27T05:36:30;100430.41;;;7.01;78.20
7333;BME280;3707;43.618;25.342;2024-01-27T05:38:56;100427.03;;;7.02;78.81
7333;BME280;3707;43.618;25.342;2024-01-27T05:41:26;100444.09;;;7.24;80.43
7333;BME280;3707;43.618;25.342;2024-01-27T05:43:54;100447.34;;;7.18;82.46
7333;BME280;3707;43.618;25.342;2024-01-27T05:46:22;100412.06;;;6.92;83.39
7333;BME280;3707;43.618;25.342;2024-01-27T05:48:49;100425.09;;;6.96;84.17
7333;BME280;3707;43.618;25.342;2024-01-27T05:51:21;100405.59;;;6.79;87.50
7333;BME280;3707;43.618;25.342;2024-01-27T05:53:49;100444.81;;;6.94;89.20
7333;BME280;3707;43.618;25.342;2024-01-27T05:56:16;100445.31;;;6.84;92.14
7333;BME280;3707;43.618;25.342;2024-01-27T05:58:43;100446.66;;;6.75;94.76
7333;BME280;3707;43.618;25.342;2024-01-27T06:01:10;100448.31;;;6.73;99.68
7333;BME280;3707;43.618;25.342;2024-01-27T06:03:51;100457.91;;;6.77;100.00
7333;BME280;3707;43.618;25.342;2024-01-27T06:06:18;100449.94;;;6.71;100.00
7333;BME280;3707;43.618;25.342;2024-01-27T06:08:45;100445.25;;;6.59;100.00
7333;BME280;3707;43.618;25.342;2024-01-27T06:11:12;100464.38;;;6.43;100.00
7333;BME280;3707;43.618;25.342;2024-01-27T06:13:40;100427.94;;;6.33;100.00
7333;BME280;3707;43.618;25.342;2024-01-27T06:16:07;100443.09;;;6.47;100.00
7333;BME280;3707;43.618;25.342;2024-01-27T06:18:35;100456.78;;;6.46;100.00
7333;BME280;3707;43.618;25.342;2024-01-27T06:21:05;100426.75;;;6.25;100.00
7333;BME280;3707;43.618;25.342;2024-01-27T06:23:32;100452.47;;;6.45;100.00
7333;BME280;3707;43.618;25.342;2024-01-27T06:25:59;100441.22;;;6.21;100.00
7333;BME280;3707;43.618;25.342;2024-01-27T06:28:25;100450.34;;;6.35;100.00
7333;BME280;3707;43.618;25.342;2024-01-27T06:30:53;100459.78;;;6.35;100.00
7333;BME280;3707;43.618;25.342;2024-01-27T06:33:19;100385.63;;;5.82;100.00
7333;BME280;3707;43.618;25.342;2024-01-27T06:35:46;100421.22;;;5.92;100.00
7333;BME280;3707;43.618;25.342;2024-01-27T06:38:14;100444.81;;;6.03;100.00
7333;BME280;3707;43.618;25.342;2024-01-27T06:40:41;100444.97;;;6.07;100.00
7333;BME280;3707;43.618;25.342;2024-01-27T06:43:11;100419.94;;;6.03;100.00
7333;BME280;3707;43.618;25.342;2024-01-27T06:45:39;100418.50;;;5.89;100.00
7333;BME280;3707;43.618;25.342;2024-01-27T06:48:06;100419.59;;;5.94;100.00
7333;BME280;3707;43.618;25.342;2024-01-27T06:50:33;100404.72;;;5.87;100.00
7333;BME280;3707;43.618;25.342;2024-01-27T06:53:00;100296.50;;;5.17;100.00
7333;BME280;3707;43.618;25.342;2024-01-27T06:55:29;100410.69;;;5.86;100.00
7333;BME280;3707;43.618;25.342;2024-01-27T06:57:55;100431.13;;;5.83;100.00
7333;BME280;3707;43.618;25.342;2024-01-27T07:00:22;100347.25;;;5.43;100.00
7333;BME280;3707;43.618;25.342;2024-01-27T07:02:49;100431.38;;;5.89;100.00
7333;BME280;3707;43.618;25.342;2024-01-27T07:05:16;100437.94;;;5.82;100.00
7333;BME280;3707;43.618;25.342;2024-01-27T07:07:43;100380.94;;;5.72;100.00
7333;BME280;3707;43.618;25.342;2024-01-27T07:10:09;100432.75;;;6.02;100.00
7333;BME280;3707;43.618;25.342;2024-01-27T07:12:38;100414.22;;;5.88;100.00
7333;BME280;3707;43.618;25.342;2024-01-27T07:15:05;100379.19;;;5.71;100.00
7333;BME280;3707;43.618;25.342;2024-01-27T07:17:32;100398.56;;;5.83;100.00
7333;BME280;3707;43.618;25.342;2024-01-27T07:19:59;100423.56;;;6.08;100.00
7333;BME280;3707;43.618;25.342;2024-01-27T07:22:26;100421.81;;;6.07;100.00
7333;BME280;3707;43.618;25.342;2024-01-27T07:24:52;100414.06;;;6.07;100.00
7333;BME280;3707;43.618;25.342;2024-01-27T07:27:22;100294.63;;;5.35;100.00
7333;BME280;3707;43.618;25.342;2024-01-27T07:29:50;100368.66;;;5.65;100.00
7333;BME280;3707;43.618;25.342;2024-01-27T07:32:17;100385.16;;;5.70;100.00
7333;BME280;3707;43.618;25.342;2024-01-27T07:34:44;100396.84;;;5.84;100.00
7333;BME280;3707;43.618;25.342;2024-01-27T07:37:11;100411.88;;;5.94;100.00
7333;BME280;3707;43.618;25.342;2024-01-27T07:39:37;100403.06;;;5.89;100.00
7333;BME280;3707;43.618;25.342;2024-01-27T07:42:05;100228.13;;;5.00;100.00
7333;BME280;3707;43.618;25.342;2024-01-27T07:44:32;100368.59;;;5.85;100.00
7333;BME280;3707;43.618;25.342;2024-01-27T07:47:00;100408.81;;;6.26;100.00
7333;BME280;3707;43.618;25.342;2024-01-27T07:49:26;100400.38;;;6.30;100.00
7333;BME280;3707;43.618;25.342;2024-01-27T07:51:53;100384.28;;;6.36;100.00
7333;BME280;3707;43.618;25.342;2024-01-27T07:54:20;100413.22;;;6.53;100.00
7333;BME280;3707;43.618;25.342;2024-01-27T07:56:48;100417.78;;;6.60;100.00
7333;BME280;3707;43.618;25.342;2024-01-27T07:59:15;100406.31;;;6.52;100.00
7333;BME280;3707;43.618;25.342;2024-01-27T08:01:41;100236.31;;;5.57;100.00
7333;BME280;3707;43.618;25.342;2024-01-27T08:04:10;100399.31;;;6.47;100.00
7333;BME280;3707;43.618;25.342;2024-01-27T08:06:46;100405.88;;;6.63;100.00
7333;BME280;3707;43.618;25.342;2024-01-27T08:09:13;100419.50;;;6.61;100.00
7333;BME280;3707;43.618;25.342;2024-01-27T08:11:40;100413.81;;;7.18;100.00
7333;BME280;3707;43.618;25.342;2024-01-27T08:14:06;100417.34;;;6.96;100.00
7333;BME280;3707;43.618;25.342;2024-01-27T08:16:33;100427.25;;;6.84;100.00
7333;BME280;3707;43.618;25.342;2024-01-27T08:19:00;100439.31;;;6.85;100.00
7333;BME280;3707;43.618;25.342;2024-01-27T08:21:28;100432.94;;;6.76;100.00
7333;BME280;3707;43.618;25.342;2024-01-27T08:23:55;100344.34;;;6.23;100.00
7333;BME280;3707;43.618;25.342;2024-01-27T08:26:22;100444.63;;;6.90;100.00
7333;BME280;3707;43.618;25.342;2024-01-27T08:28:49;100437.22;;;6.99;100.00
7333;BME280;3707;43.618;25.342;2024-01-27T08:31:16;100420.00;;;6.98;100.00
7333;BME280;3707;43.618;25.342;2024-01-27T08:33:42;100448.06;;;7.14;100.00
7333;BME280;3707;43.618;25.342;2024-01-27T08:36:13;100424.75;;;7.11;100.00
7333;BME280;3707;43.618;25.342;2024-01-27T08:38:41;100454.66;;;7.31;100.00
7333;BME280;3707;43.618;25.342;2024-01-27T08:41:08;100453.31;;;7.17;100.00
7333;BME280;3707;43.618;25.342;2024-01-27T08:43:34;100454.97;;;7.15;100.00
7333;BME280;3707;43.618;25.342;2024-01-27T08:46:01;100441.41;;;7.21;100.00
7333;BME280;3707;43.618;25.342;2024-01-27T08:48:28;100461.00;;;7.16;100.00
7333;BME280;3707;43.618;25.342;2024-01-27T08:50:55;100462.41;;;7.06;100.00
7333;BME280;3707;43.618;25.342;2024-01-27T08:53:21;100468.69;;;7.14;100.00
7333;BME280;3707;43.618;25.342;2024-01-27T08:55:50;100467.09;;;7.18;100.00
7333;BME280;3707;43.618;25.342;2024-01-27T08:58:16;100442.97;;;7.16;100.00
7333;BME280;3707;43.618;25.342;2024-01-27T09:00:43;100445.44;;;7.13;100.00
7333;BME280;3707;43.618;25.342;2024-01-27T09:03:10;100473.66;;;7.33;100.00
7333;BME280;3707;43.618;25.342;2024-01-27T09:05:37;100470.50;;;7.42;100.00
7333;BME280;3707;43.618;25.342;2024-01-27T09:08:06;100477.03;;;7.31;100.00
7333;BME280;3707;43.618;25.342;2024-01-27T09:10:33;100450.69;;;7.16;100.00
7333;BME280;3707;43.618;25.342;2024-01-27T09:13:01;100477.25;;;7.13;100.00
7333;BME280;3707;43.618;25.342;2024-01-27T09:15:28;100472.84;;;7.34;100.00
7333;BME280;3707;43.618;25.342;2024-01-27T09:17:54;100463.41;;;7.11;100.00
7333;BME280;3707;43.618;25.342;2024-01-27T09:20:22;100467.94;;;6.93;100.00
7333;BME280;3707;43.618;25.342;2024-01-27T09:22:48;100437.81;;;6.68;100.00
7333;BME280;3707;43.618;25.342;2024-01-27T09:25:16;100479.66;;;6.85;100.00
7333;BME280;3707;43.618;25.342;2024-01-27T09:27:42;100471.69;;;6.77;100.00
7333;BME280;3707;43.618;25.342;2024-01-27T09:30:11;100318.31;;;5.92;100.00
7333;BME280;3707;43.618;25.342;2024-01-27T09:32:39;100461.91;;;6.69;100.00
7333;BME280;3707;43.618;25.342;2024-01-27T09:35:06;100458.50;;;6.70;100.00
7333;BME280;3707;43.618;25.342;2024-01-27T09:37:33;100442.06;;;6.66;100.00
7333;BME280;3707;43.618;25.342;2024-01-27T09:39:59;100461.97;;;6.70;100.00
7333;BME280;3707;43.618;25.342;2024-01-27T09:42:28;100379.41;;;6.20;100.00
7333;BME280;3707;43.618;25.342;2024-01-27T09:44:56;100462.56;;;6.87;100.00
7333;BME280;3707;43.618;25.342;2024-01-27T09:47:25;100452.75;;;6.77;100.00
7333;BME280;3707;43.618;25.342;2024-01-27T09:49:52;100476.75;;;6.76;100.00
7333;BME280;3707;43.618;25.342;2024-01-27T09:52:19;100460.59;;;6.80;100.00
7333;BME280;3707;43.618;25.342;2024-01-27T09:54:47;100403.03;;;6.56;100.00
7333;BME280;3707;43.618;25.342;2024-01-27T09:57:14;100452.47;;;6.93;100.00
7333;BME280;3707;43.618;25.342;2024-01-27T09:59:44;100453.69;;;7.03;100.00
7333;BME280;3707;43.618;25.342;2024-01-27T10:02:12;100435.94;;;7.12;100.00
7333;BME280;3707;43.618;25.342;2024-01-27T10:04:42;100466.13;;;7.39;100.00
7333;BME280;3707;43.618;25.342;2024-01-27T10:07:10;100353.78;;;6.72;100.00
7333;BME280;3707;43.618;25.342;2024-01-27T10:09:37;100344.91;;;6.64;100.00
7333;BME280;3707;43.618;25.342;2024-01-27T10:12:07;100318.72;;;7.27;100.00
7333;BME280;3707;43.618;25.342;2024-01-27T10:14:39;100271.09;;;6.64;100.00
7333;BME280;3707;43.618;25.342;2024-01-27T10:17:09;100373.91;;;7.07;100.00
7333;BME280;3707;43.618;25.342;2024-01-27T10:19:35;100480.44;;;7.57;100.00
7333;BME280;3707;43.618;25.342;2024-01-27T10:22:04;100488.59;;;7.69;100.00
7333;BME280;3707;43.618;25.342;2024-01-27T10:24:31;100470.09;;;7.55;100.00
7333;BME280;3707;43.618;25.342;2024-01-27T10:26:59;100457.22;;;7.57;100.00
7333;BME280;3707;43.618;25.342;2024-01-27T10:29:26;100438.19;;;7.53;100.00
7333;BME280;3707;43.618;25.342;2024-01-27T10:31:53;100493.25;;;7.79;100.00
7333;BME280;3707;43.618;25.342;2024-01-27T10:34:20;100460.56;;;7.53;100.00
7333;BME280;3707;43.618;25.342;2024-01-27T10:36:47;100485.34;;;7.74;100.00
7333;BME280;3707;43.618;25.342;2024-01-27T10:39:20;100500.75;;;7.98;100.00
7333;BME280;3707;43.618;25.342;2024-01-27T10:41:49;100401.19;;;7.26;100.00
7333;BME280;3707;43.618;25.342;2024-01-27T10:44:17;100467.91;;;7.67;100.00
7333;BME280;3707;43.618;25.342;2024-01-27T10:46:44;100463.50;;;7.63;100.00
7333;BME280;3707;43.618;25.342;2024-01-27T10:49:13;100493.16;;;7.76;100.00
7333;BME280;3707;43.618;25.342;2024-01-27T10:51:44;100505.50;;;7.86;100.00
7333;BME280;3707;43.618;25.342;2024-01-27T10:54:14;100492.50;;;7.83;100.00
7333;BME280;3707;43.618;25.342;2024-01-27T10:56:45;100515.47;;;8.01;100.00
7333;BME280;3707;43.618;25.342;2024-01-27T10:59:13;100424.78;;;7.63;100.00
7333;BME280;3707;43.618;25.342;2024-01-27T11:01:41;100525.81;;;8.27;100.00
7333;BME280;3707;43.618;25.342;2024-01-27T11:04:10;100515.69;;;8.33;100.00
7333;BME280;3707;43.618;25.342;2024-01-27T11:06:39;100528.53;;;8.59;100.00
7333;BME280;3707;43.618;25.342;2024-01-27T11:09:08;100508.09;;;8.38;100.00
7333;BME280;3707;43.618;25.342;2024-01-27T11:11:37;100453.25;;;8.21;100.00
7333;BME280;3707;43.618;25.342;2024-01-27T11:14:06;100440.03;;;8.11;100.00
7333;BME280;3707;43.618;25.342;2024-01-27T11:16:35;100468.69;;;8.45;100.00
7333;BME280;3707;43.618;25.342;2024-01-27T11:19:04;100485.31;;;8.55;100.00
7333;BME280;3707;43.618;25.342;2024-01-27T11:21:31;100552.22;;;9.02;100.00
7333;BME280;3707;43.618;25.342;2024-01-27T11:23:58;100533.22;;;9.02;100.00
7333;BME280;3707;43.618;25.342;2024-01-27T11:26:24;100561.13;;;9.13;100.00
7333;BME280;3707;43.618;25.342;2024-01-27T11:28:52;100548.81;;;9.34;100.00
7333;BME280;3707;43.618;25.342;2024-01-27T11:31:20;100561.84;;;9.37;100.00
7333;BME280;3707;43.618;25.342;2024-01-27T11:33:48;100519.66;;;9.10;100.00
7333;BME280;3707;43.618;25.342;2024-01-27T11:36:21;100368.50;;;8.66;100.00
7333;BME280;3707;43.618;25.342;2024-01-27T11:38:49;100565.03;;;9.93;100.00
7333;BME280;3707;43.618;25.342;2024-01-27T11:41:26;100535.56;;;9.55;100.00
7333;BME280;3707;43.618;25.342;2024-01-27T11:43:54;100545.78;;;9.51;100.00
7333;BME280;3707;43.618;25.342;2024-01-27T11:46:22;100548.69;;;9.30;100.00
7333;BME280;3707;43.618;25.342;2024-01-27T11:48:49;100542.94;;;9.10;100.00
7333;BME280;3707;43.618;25.342;2024-01-27T11:51:17;100569.97;;;9.20;100.00
7333;BME280;3707;43.618;25.342;2024-01-27T11:53:45;100527.50;;;9.13;100.00
7333;BME280;3707;43.618;25.342;2024-01-27T11:56:13;100550.53;;;9.35;100.00
7333;BME280;3707;43.618;25.342;2024-01-27T11:58:46;100500.72;;;9.11;100.00
7333;BME280;3707;43.618;25.342;2024-01-27T12:01:13;100596.00;;;9.57;100.00
7333;BME280;3707;43.618;25.342;2024-01-27T12:03:42;100545.34;;;9.34;100.00
7333;BME280;3707;43.618;25.342;2024-01-27T12:06:09;100552.06;;;9.27;100.00
7333;BME280;3707;43.618;25.342;2024-01-27T12:08:36;100571.91;;;9.28;100.00
7333;BME280;3707;43.618;25.342;2024-01-27T12:11:03;100600.31;;;9.57;100.00
7333;BME280;3707;43.618;25.342;2024-01-27T12:13:30;100568.94;;;9.44;100.00
7333;BME280;3707;43.618;25.342;2024-01-27T12:15:57;100583.66;;;9.47;100.00
7333;BME280;3707;43.618;25.342;2024-01-27T12:18:24;100612.84;;;9.73;100.00
7333;BME280;3707;43.618;25.342;2024-01-27T12:20:55;100504.81;;;9.34;100.00
7333;BME280;3707;43.618;25.342;2024-01-27T12:23:23;100556.19;;;9.52;100.00
7333;BME280;3707;43.618;25.342;2024-01-27T12:25:52;100538.84;;;9.50;100.00
7333;BME280;3707;43.618;25.342;2024-01-27T12:28:22;100621.25;;;9.97;100.00
7333;BME280;3707;43.618;25.342;2024-01-27T12:30:49;100602.56;;;9.76;100.00
7333;BME280;3707;43.618;25.342;2024-01-27T12:33:16;100632.28;;;9.90;100.00
7333;BME280;3707;43.618;25.342;2024-01-27T12:35:45;100629.34;;;9.76;100.00
7333;BME280;3707;43.618;25.342;2024-01-27T12:38:13;100556.59;;;9.34;100.00
7333;BME280;3707;43.618;25.342;2024-01-27T12:40:40;100611.69;;;9.62;100.00
7333;BME280;3707;43.618;25.342;2024-01-27T12:43:07;100628.00;;;9.59;100.00
7333;BME280;3707;43.618;25.342;2024-01-27T12:45:34;100635.84;;;9.62;100.00
7333;BME280;3707;43.618;25.342;2024-01-27T12:48:01;100640.31;;;9.68;100.00
7333;BME280;3707;43.618;25.342;2024-01-27T12:50:30;100636.91;;;9.69;100.00
7333;BME280;3707;43.618;25.342;2024-01-27T12:52:57;100630.44;;;9.86;100.00
7333;BME280;3707;43.618;25.342;2024-01-27T12:55:26;100632.28;;;9.90;100.00
7333;BME280;3707;43.618;25.342;2024-01-27T12:57:52;100633.78;;;9.82;100.00
7333;BME280;3707;43.618;25.342;2024-01-27T13:00:19;100622.16;;;9.66;100.00
7333;BME280;3707;43.618;25.342;2024-01-27T13:02:46;100640.22;;;9.65;100.00